createdAt,value
2019-04-03T00:01:11.027Z,14.40
2019-04-03T00:03:40.884Z,14.30
2019-04-03T00:06:10.734Z,13.63
2019-04-03T00:08:41.534Z,14.90
2019-04-03T00:11:11.917Z,14.40
2019-04-03T00:13:42.571Z,14.53
2019-04-03T00:16:15.286Z,14.33
2019-04-03T00:18:43.978Z,13.57
2019-04-03T00:21:15.142Z,14.10
2019-04-03T00:23:44.992Z,14.97
2019-04-03T00:26:26.536Z,14.37
2019-04-03T00:28:56.468Z,15.13
2019-04-03T00:31:30.376Z,13.27
2019-04-03T00:34:12.388Z,13.23
2019-04-03T00:36:42.551Z,14.53
2019-04-03T00:39:12.142Z,13.53
2019-04-03T00:41:41.772Z,14.00
2019-04-03T00:44:11.581Z,14.60
2019-04-03T00:46:41.193Z,14.67
2019-04-03T00:49:10.865Z,14.70
2019-04-03T00:51:40.740Z,13.80
2019-04-03T00:54:10.691Z,14.43
2019-04-03T00:56:40.496Z,14.07
2019-04-03T00:59:10.870Z,15.03
2019-04-03T01:01:40.947Z,15.07
2019-04-03T01:04:10.876Z,15.23
2019-04-03T01:06:40.644Z,15.23
2019-04-03T01:09:10.338Z,14.80
2019-04-03T01:11:39.984Z,14.97
2019-04-03T01:14:09.780Z,15.03
2019-04-03T01:16:39.480Z,14.20
2019-04-03T01:19:09.122Z,14.47
2019-04-03T01:21:42.879Z,14.40
2019-04-03T01:24:12.446Z,13.90
2019-04-03T01:26:42.143Z,13.87
2019-04-03T01:29:12.699Z,13.63
2019-04-03T01:31:51.885Z,13.47
2019-04-03T01:34:21.425Z,13.90
2019-04-03T01:36:51.266Z,14.50
2019-04-03T01:39:21.425Z,14.00
2019-04-03T01:41:51.951Z,14.07
2019-04-03T01:44:24.323Z,14.30
2019-04-03T01:46:53.420Z,14.17
2019-04-03T01:49:23.429Z,14.03
2019-04-03T01:51:53.105Z,13.10
2019-04-03T01:54:22.948Z,13.73
2019-04-03T01:56:53.503Z,13.20
2019-04-03T01:59:23.725Z,12.23
2019-04-03T02:01:53.585Z,13.07
2019-04-03T02:04:23.324Z,12.57
2019-04-03T02:06:53.507Z,13.00
2019-04-03T02:09:23.406Z,12.63
2019-04-03T02:11:53.335Z,11.53
2019-04-03T02:14:23.074Z,11.73
2019-04-03T02:16:53.846Z,12.60
2019-04-03T02:19:25.858Z,13.10
2019-04-03T02:21:55.035Z,12.47
2019-04-03T02:24:24.890Z,13.17
2019-04-03T02:26:54.565Z,12.03
2019-04-03T02:29:24.742Z,12.53
2019-04-03T02:31:54.300Z,12.40
2019-04-03T02:34:24.387Z,12.27
2019-04-03T02:36:54.474Z,13.07
2019-04-03T02:39:43.089Z,12.77
2019-04-03T02:42:13.252Z,13.93
2019-04-03T02:44:42.933Z,12.93
2019-04-03T02:47:12.810Z,11.90
2019-04-03T02:49:43.619Z,11.77
2019-04-03T02:52:13.628Z,11.37
2019-04-03T02:54:44.403Z,11.93
2019-04-03T02:57:17.435Z,13.17
2019-04-03T02:59:45.797Z,12.40
2019-04-03T03:02:15.569Z,12.13
2019-04-03T03:04:46.065Z,12.23
2019-04-03T03:07:15.735Z,11.53
2019-04-03T03:09:48.362Z,12.87
2019-04-03T03:12:18.413Z,13.43
2019-04-03T03:14:50.467Z,13.47
2019-04-03T03:17:23.592Z,12.90
2019-04-03T03:20:07.480Z,13.73
2019-04-03T03:22:38.060Z,13.37
2019-04-03T03:25:08.028Z,13.70
2019-04-03T03:27:41.599Z,13.20
2019-04-03T03:30:30.945Z,13.63
2019-04-03T03:32:42.249Z,13.13
2019-04-03T03:35:22.842Z,13.60
2019-04-03T03:37:46.806Z,13.33
2019-04-03T03:40:16.990Z,12.00
2019-04-03T03:42:47.644Z,12.20
2019-04-03T03:45:21.646Z,12.70
2019-04-03T03:47:53.325Z,12.77
2019-04-03T03:50:27.035Z,12.47
2019-04-03T03:52:58.299Z,12.67
2019-04-03T03:55:29.783Z,12.80
2019-04-03T03:58:00.205Z,13.03
2019-04-03T04:00:30.271Z,13.63
2019-04-03T04:03:00.241Z,14.87
2019-04-03T04:05:30.443Z,12.47
2019-04-03T04:08:00.006Z,13.23
2019-04-03T04:10:31.956Z,13.77
2019-04-03T04:13:02.083Z,13.80
2019-04-03T04:15:32.419Z,13.97
2019-04-03T04:18:03.169Z,12.90
2019-04-03T04:20:36.661Z,12.27
2019-04-03T04:23:05.233Z,12.23
2019-04-03T04:25:44.717Z,12.47
2019-04-03T04:28:24.167Z,11.87
2019-04-03T04:30:54.034Z,12.40
2019-04-03T04:33:24.119Z,11.60
2019-04-03T04:35:54.053Z,11.60
2019-04-03T04:38:26.179Z,11.57
2019-04-03T04:40:55.316Z,11.43
2019-04-03T04:43:25.386Z,11.03
2019-04-03T04:45:55.317Z,12.73
2019-04-03T04:48:25.146Z,12.17
2019-04-03T04:50:55.547Z,11.53
2019-04-03T04:53:25.577Z,13.33
2019-04-03T04:55:55.121Z,13.17
2019-04-03T04:58:24.930Z,13.30
2019-04-03T05:00:54.704Z,13.53
2019-04-03T05:03:24.764Z,12.40
2019-04-03T05:05:57.263Z,12.70
2019-04-03T05:08:25.980Z,12.33
2019-04-03T05:10:55.745Z,11.33
2019-04-03T05:13:25.831Z,12.10
2019-04-03T05:15:55.804Z,11.57
2019-04-03T05:18:28.438Z,13.10
2019-04-03T05:20:57.582Z,13.10
2019-04-03T05:23:27.304Z,12.70
2019-04-03T05:25:56.961Z,13.27
2019-04-03T05:28:27.159Z,13.47
2019-04-03T05:30:56.978Z,13.37
2019-04-03T05:33:26.623Z,13.30
2019-04-03T05:35:56.417Z,13.10
2019-04-03T05:38:45.123Z,12.93
2019-04-03T05:41:15.031Z,12.23
2019-04-03T05:43:44.733Z,12.17
2019-04-03T05:46:14.766Z,12.30
2019-04-03T05:48:47.515Z,13.33
2019-04-03T05:51:17.163Z,13.53
2019-04-03T05:53:47.173Z,14.53
2019-04-03T05:56:17.303Z,15.60
2019-04-03T05:58:55.528Z,15.27
2019-04-03T06:01:18.623Z,15.33
2019-04-03T06:03:48.289Z,15.27
2019-04-03T06:06:18.196Z,15.43
2019-04-03T06:08:50.882Z,15.10
2019-04-03T06:11:20.721Z,15.33
2019-04-03T06:13:51.378Z,15.37
2019-04-03T06:16:23.436Z,15.10
2019-04-03T06:18:53.041Z,15.83
2019-04-03T06:21:23.113Z,15.47
2019-04-03T06:23:53.419Z,16.83
2019-04-03T06:26:23.571Z,16.57
2019-04-03T06:28:53.596Z,16.33
2019-04-03T06:31:25.734Z,16.40
2019-04-03T06:33:54.840Z,15.60
2019-04-03T06:36:24.972Z,14.37
2019-04-03T06:38:57.430Z,13.77
2019-04-03T06:41:27.502Z,13.53
2019-04-03T06:43:57.140Z,14.03
2019-04-03T06:46:28.972Z,14.93
2019-04-03T06:48:58.682Z,15.57
2019-04-03T06:51:28.389Z,15.23
2019-04-03T06:53:59.809Z,15.90
2019-04-03T06:56:30.401Z,16.20
2019-04-03T06:58:59.993Z,15.73
2019-04-03T07:01:29.648Z,16.97
2019-04-03T07:03:59.368Z,16.77
2019-04-03T07:06:29.159Z,16.30
2019-04-03T07:09:24.337Z,17.73
2019-04-03T07:11:49.313Z,21.97
2019-04-03T07:14:19.788Z,22.83
2019-04-03T07:16:49.807Z,18.93
2019-04-03T07:19:19.861Z,17.73
2019-04-03T07:21:49.524Z,16.83
2019-04-03T07:24:19.764Z,15.13
2019-04-03T07:26:49.816Z,16.27
2019-04-03T07:29:20.068Z,16.83
2019-04-03T07:31:49.812Z,16.23
2019-04-03T07:34:33.721Z,14.97
2019-04-03T07:37:03.109Z,14.73
2019-04-03T07:39:32.836Z,15.67
2019-04-03T07:42:03.146Z,16.13
2019-04-03T07:44:33.044Z,15.40
2019-04-03T07:47:04.015Z,15.23
2019-04-03T07:49:34.827Z,15.73
2019-04-03T07:52:04.732Z,14.70
2019-04-03T07:54:34.726Z,14.37
2019-04-03T07:57:04.463Z,14.53
2019-04-03T07:59:34.760Z,15.23
2019-04-03T08:02:04.773Z,15.30
2019-04-03T08:04:34.547Z,14.50
2019-04-03T08:07:04.616Z,14.37
2019-04-03T08:09:34.339Z,14.13
2019-04-03T08:12:04.569Z,13.57
2019-04-03T08:14:34.718Z,13.70
2019-04-03T08:17:04.488Z,13.00
2019-04-03T08:19:34.444Z,13.37
2019-04-03T08:22:04.319Z,13.50
2019-04-03T08:24:34.344Z,14.90
2019-04-03T08:27:07.451Z,13.83
2019-04-03T08:29:38.223Z,12.90
2019-04-03T08:32:08.351Z,13.37
2019-04-03T08:34:38.121Z,13.07
2019-04-03T08:37:10.040Z,13.07
2019-04-03T08:39:39.772Z,13.57
2019-04-03T08:42:09.413Z,13.07
2019-04-03T08:44:39.812Z,13.20
2019-04-03T08:47:10.202Z,12.70
2019-04-03T08:49:40.159Z,12.67
2019-04-03T08:52:10.077Z,13.70
2019-04-03T08:54:41.483Z,13.77
2019-04-03T08:57:12.624Z,13.53
2019-04-03T08:59:42.307Z,13.27
2019-04-03T09:02:13.268Z,12.93
2019-04-03T09:04:43.387Z,12.70
2019-04-03T09:07:13.799Z,13.47
2019-04-03T09:09:43.535Z,13.40
2019-04-03T09:12:13.155Z,12.87
2019-04-03T09:14:43.013Z,12.87
2019-04-03T09:17:12.851Z,13.33
2019-04-03T09:19:42.815Z,13.23
2019-04-03T09:22:12.839Z,12.80
2019-04-03T09:24:42.429Z,12.97
2019-04-03T09:27:12.141Z,12.20
2019-04-03T09:29:42.933Z,12.33
2019-04-03T09:32:13.763Z,11.73
2019-04-03T09:34:43.901Z,11.07
2019-04-03T09:37:13.819Z,11.53
2019-04-03T09:39:45.295Z,9.23
2019-04-03T09:42:21.805Z,8.97
2019-04-03T09:44:51.904Z,8.47
2019-04-03T09:47:26.236Z,8.60
2019-04-03T09:49:57.444Z,9.03
2019-04-03T09:52:38.284Z,7.93
2019-04-03T09:55:00.330Z,8.57
2019-04-03T09:57:31.301Z,7.40
2019-04-03T10:00:02.275Z,8.37
2019-04-03T10:02:33.220Z,8.67
2019-04-03T10:05:03.158Z,7.97
2019-04-03T10:07:35.435Z,8.10
2019-04-03T10:10:05.648Z,8.17
2019-04-03T10:12:35.166Z,8.37
2019-04-03T10:15:05.983Z,8.50
2019-04-03T10:17:37.443Z,7.90
2019-04-03T10:20:08.042Z,8.47
2019-04-03T10:22:38.467Z,8.37
2019-04-03T10:25:09.265Z,8.80
2019-04-03T10:27:57.924Z,8.50
2019-04-03T10:30:28.148Z,8.10
2019-04-03T10:32:59.525Z,8.03
2019-04-03T10:35:29.090Z,8.53
2019-04-03T10:37:58.803Z,8.20
2019-04-03T10:40:28.959Z,8.00
2019-04-03T10:43:00.067Z,8.73
2019-04-03T10:45:30.296Z,8.87
2019-04-03T10:48:00.158Z,8.03
2019-04-03T10:50:30.040Z,8.40
2019-04-03T10:53:00.012Z,8.27
2019-04-03T10:55:30.423Z,8.77
2019-04-03T10:58:02.210Z,7.83
2019-04-03T11:00:32.302Z,8.20
2019-04-03T11:03:02.032Z,7.90
2019-04-03T11:05:32.668Z,7.90
2019-04-03T11:08:02.521Z,8.20
2019-04-03T11:10:32.252Z,8.43
2019-04-03T11:13:03.247Z,8.10
2019-04-03T11:15:33.647Z,9.03
2019-04-03T11:18:03.291Z,9.03
2019-04-03T11:20:35.670Z,7.70
2019-04-03T11:23:07.679Z,7.67
2019-04-03T11:25:36.310Z,7.70
2019-04-03T11:28:06.552Z,7.17
2019-04-03T11:30:36.859Z,7.57
2019-04-03T11:33:06.927Z,7.90
2019-04-03T11:35:36.647Z,8.07
2019-04-03T11:38:14.097Z,7.73
2019-04-03T11:40:38.012Z,7.53
2019-04-03T11:43:07.935Z,7.50
2019-04-03T11:45:37.879Z,7.47
2019-04-03T11:48:08.042Z,7.87
2019-04-03T11:50:39.954Z,7.47
2019-04-03T11:53:09.408Z,7.40
2019-04-03T11:55:39.984Z,7.23
2019-04-03T11:58:11.415Z,7.30
2019-04-03T12:00:45.330Z,7.77
2019-04-03T12:03:15.235Z,7.13
2019-04-03T12:05:47.167Z,7.13
2019-04-03T12:08:17.432Z,7.30
2019-04-03T12:10:47.284Z,7.07
2019-04-03T12:13:17.118Z,7.53
2019-04-03T12:15:47.241Z,7.13
2019-04-03T12:18:17.267Z,7.07
2019-04-03T12:20:49.388Z,7.23
2019-04-03T12:23:18.647Z,6.63
2019-04-03T12:25:48.329Z,7.13
2019-04-03T12:28:19.027Z,7.00
2019-04-03T12:30:52.627Z,6.90
2019-04-03T12:33:22.393Z,6.77
2019-04-03T12:35:58.461Z,7.40
2019-04-03T12:38:28.382Z,6.80
2019-04-03T12:40:58.162Z,7.07
2019-04-03T12:43:27.997Z,6.60
2019-04-03T12:46:00.404Z,7.10
2019-04-03T12:48:29.252Z,6.73
2019-04-03T12:51:00.165Z,6.50
2019-04-03T12:53:30.356Z,6.30
2019-04-03T12:56:00.198Z,6.57
2019-04-03T12:58:30.179Z,6.57
2019-04-03T13:01:00.210Z,6.37
2019-04-03T13:03:30.213Z,6.23
2019-04-03T13:05:59.830Z,6.00
2019-04-03T13:08:29.649Z,6.50
2019-04-03T13:10:59.715Z,5.80
2019-04-03T13:13:29.492Z,5.80
2019-04-03T13:15:59.414Z,5.90
2019-04-03T13:18:29.425Z,6.03
2019-04-03T13:20:59.463Z,5.70
2019-04-03T13:23:29.748Z,4.97
2019-04-03T13:25:59.818Z,5.70
2019-04-03T13:28:29.434Z,5.20
2019-04-03T13:30:59.062Z,5.00
2019-04-03T13:33:28.754Z,4.87
2019-04-03T13:35:58.367Z,5.30
2019-04-03T13:38:29.433Z,5.50
2019-04-03T13:41:00.442Z,5.87
2019-04-03T13:43:30.481Z,5.77
2019-04-03T13:46:03.843Z,5.20
2019-04-03T13:48:38.905Z,5.53
2019-04-03T13:51:08.652Z,5.20
2019-04-03T13:53:38.268Z,5.20
2019-04-03T13:56:10.572Z,5.10
2019-04-03T13:58:39.737Z,5.07
2019-04-03T14:01:10.069Z,5.10
2019-04-03T14:03:54.214Z,5.30
2019-04-03T14:06:24.434Z,5.10
2019-04-03T14:08:54.225Z,5.40
2019-04-03T14:11:24.458Z,5.07
2019-04-03T14:13:55.179Z,5.13
2019-04-03T14:16:26.699Z,4.67
2019-04-03T14:18:56.748Z,5.00
2019-04-03T14:21:27.755Z,4.70
2019-04-03T14:24:00.197Z,4.97
2019-04-03T14:26:30.765Z,4.70
2019-04-03T14:29:00.732Z,5.00
2019-04-03T14:31:35.611Z,4.60
2019-04-03T14:34:01.971Z,4.60
2019-04-03T14:36:31.730Z,4.60
2019-04-03T14:39:03.494Z,4.53
2019-04-03T14:41:35.242Z,4.40
2019-04-03T14:44:06.945Z,4.77
2019-04-03T14:46:36.228Z,4.20
2019-04-03T14:49:06.052Z,4.37
2019-04-03T14:51:35.908Z,4.50
2019-04-03T14:54:07.766Z,3.73
2019-04-03T14:56:37.053Z,4.20
2019-04-03T14:59:07.292Z,4.23
2019-04-03T15:01:37.398Z,4.57
2019-04-03T15:04:07.047Z,4.43
2019-04-03T15:06:36.881Z,3.97
2019-04-03T15:09:09.392Z,4.10
2019-04-03T15:11:39.272Z,3.93
2019-04-03T15:14:09.533Z,4.07
2019-04-03T15:16:39.114Z,3.93
2019-04-03T15:19:09.354Z,3.80
2019-04-03T15:21:40.951Z,3.60
2019-04-03T15:24:11.407Z,3.60
2019-04-03T15:26:42.148Z,3.30
2019-04-03T15:29:12.203Z,3.30
2019-04-03T15:31:44.803Z,3.57
2019-04-03T15:34:14.289Z,3.40
2019-04-03T15:36:44.189Z,3.40
2019-04-03T15:39:16.803Z,3.10
2019-04-03T15:41:46.285Z,3.30
2019-04-03T15:44:16.291Z,3.10
2019-04-03T15:46:46.104Z,3.40
2019-04-03T15:49:15.935Z,2.80
2019-04-03T15:51:46.252Z,3.03
2019-04-03T15:54:16.174Z,2.90
2019-04-03T15:56:46.627Z,2.90
2019-04-03T15:59:16.681Z,2.90
2019-04-03T16:01:46.623Z,3.10
2019-04-03T16:04:16.389Z,2.80
2019-04-03T16:06:46.169Z,3.00
2019-04-03T16:09:18.334Z,2.97
2019-04-03T16:11:47.298Z,2.80
2019-04-03T16:14:19.891Z,2.60
2019-04-03T16:16:48.309Z,2.33
2019-04-03T16:19:18.803Z,2.60
2019-04-03T16:21:49.293Z,2.80
2019-04-03T16:24:19.044Z,2.40
2019-04-03T16:26:48.673Z,2.70
2019-04-03T16:29:18.749Z,2.97
2019-04-03T16:31:48.683Z,2.60
2019-04-03T16:34:18.675Z,2.70
2019-04-03T16:36:50.231Z,2.43
2019-04-03T16:39:20.428Z,2.40
2019-04-03T16:41:50.868Z,2.20
2019-04-03T16:44:20.839Z,2.17
2019-04-03T16:46:50.425Z,2.30
2019-04-03T16:49:22.296Z,2.13
2019-04-03T16:51:51.876Z,2.47
2019-04-03T16:54:21.794Z,2.00
2019-04-03T16:56:51.855Z,2.00
2019-04-03T16:59:21.859Z,2.10
2019-04-03T17:01:52.272Z,2.10
2019-04-03T17:04:27.021Z,2.10
2019-04-03T17:06:54.582Z,1.97
2019-04-03T17:09:24.276Z,1.93
2019-04-03T17:11:54.341Z,2.20
2019-04-03T17:14:25.109Z,2.10
2019-04-03T17:16:56.187Z,1.97
2019-04-03T17:19:25.951Z,1.90
2019-04-03T17:21:55.485Z,2.07
2019-04-03T17:24:25.196Z,2.00
2019-04-03T17:26:58.308Z,2.30
2019-04-03T17:29:26.758Z,1.80
2019-04-03T17:31:58.130Z,1.90
2019-04-03T17:34:28.005Z,1.90
2019-04-03T17:36:57.752Z,1.73
2019-04-03T17:39:27.449Z,1.70
2019-04-03T17:41:57.002Z,1.70
2019-04-03T17:44:26.992Z,1.70
2019-04-03T17:46:56.896Z,1.80
2019-04-03T17:49:28.541Z,1.77
2019-04-03T17:51:58.338Z,1.70
2019-04-03T17:54:27.987Z,1.67
2019-04-03T17:56:57.780Z,1.63
2019-04-03T17:59:27.816Z,1.70
2019-04-03T18:01:57.432Z,1.70
2019-04-03T18:04:27.323Z,1.70
2019-04-03T18:06:58.003Z,1.60
2019-04-03T18:09:27.730Z,1.80
2019-04-03T18:11:58.034Z,1.77
2019-04-03T18:14:27.950Z,1.73
2019-04-03T18:16:57.755Z,1.93
2019-04-03T18:19:36.958Z,1.70
2019-04-03T18:21:59.178Z,1.80
2019-04-03T18:24:29.320Z,1.80
2019-04-03T18:26:58.960Z,2.00
2019-04-03T18:29:28.721Z,1.70
2019-04-03T18:31:58.611Z,1.80
2019-04-03T18:34:28.780Z,1.67
2019-04-03T18:36:58.485Z,1.80
2019-04-03T18:39:29.209Z,1.83
2019-04-03T18:41:59.117Z,1.80
2019-04-03T18:44:30.308Z,1.80
2019-04-03T18:47:00.078Z,1.80
2019-04-03T18:49:30.625Z,2.10
2019-04-03T18:52:01.118Z,1.63
2019-04-03T18:54:30.985Z,1.70
2019-04-03T18:57:00.904Z,1.70
2019-04-03T18:59:30.726Z,1.80
2019-04-03T19:02:03.532Z,1.90
2019-04-03T19:04:32.057Z,1.60
2019-04-03T19:07:01.907Z,2.10
2019-04-03T19:09:31.908Z,1.87
2019-04-03T19:12:08.275Z,1.90
2019-04-03T19:14:33.169Z,1.90
2019-04-03T19:17:03.080Z,1.90
2019-04-03T19:19:33.148Z,2.03
2019-04-03T19:22:02.993Z,1.87
2019-04-03T19:24:32.914Z,1.80
2019-04-03T19:27:03.470Z,2.00
2019-04-03T19:29:35.488Z,1.80
2019-04-03T19:32:04.650Z,1.87
2019-04-03T19:34:34.422Z,2.50
2019-04-03T19:37:04.249Z,1.90
2019-04-03T19:39:37.417Z,2.00
2019-04-03T19:42:06.501Z,2.20
2019-04-03T19:44:36.451Z,2.30
2019-04-03T19:47:06.107Z,1.80
2019-04-03T19:49:35.695Z,2.43
2019-04-03T19:52:06.086Z,1.90
2019-04-03T19:54:37.473Z,1.90
2019-04-03T19:57:07.249Z,1.80
2019-04-03T19:59:37.477Z,1.70
2019-04-03T20:02:09.303Z,2.00
2019-04-03T20:04:38.933Z,1.83
2019-04-03T20:07:08.834Z,1.83
2019-04-03T20:09:38.748Z,1.90
2019-04-03T20:12:14.594Z,1.80
2019-04-03T20:14:57.545Z,2.00
2019-04-03T20:17:16.613Z,1.73
2019-04-03T20:19:46.286Z,1.87
2019-04-03T20:22:15.895Z,1.70
2019-04-03T20:24:45.639Z,2.00
2019-04-03T20:27:16.664Z,1.70
2019-04-03T20:29:46.834Z,1.83
2019-04-03T20:32:16.643Z,1.73
2019-04-03T20:34:46.366Z,1.60
2019-04-03T20:37:16.113Z,1.77
2019-04-03T20:39:46.098Z,1.50
2019-04-03T20:42:15.935Z,1.53
2019-04-03T20:44:47.968Z,1.60
2019-04-03T20:47:17.032Z,1.80
2019-04-03T20:49:46.878Z,1.40
2019-04-03T20:52:21.522Z,1.60
2019-04-03T20:54:53.185Z,1.60
2019-04-03T20:57:23.386Z,1.63
2019-04-03T21:00:01.825Z,1.50
2019-04-03T21:02:24.458Z,1.40
2019-04-03T21:04:54.296Z,1.30
2019-04-03T21:07:24.616Z,1.30
2019-04-03T21:09:54.432Z,1.30
2019-04-03T21:12:24.149Z,1.20
2019-04-03T21:14:53.752Z,1.30
2019-04-03T21:17:24.074Z,1.20
2019-04-03T21:19:55.326Z,1.37
2019-04-03T21:22:43.895Z,1.30
2019-04-03T21:25:13.934Z,1.40
2019-04-03T21:27:44.002Z,1.50
2019-04-03T21:30:14.802Z,1.20
2019-04-03T21:32:44.704Z,1.37
2019-04-03T21:35:14.448Z,1.80
2019-04-03T21:37:44.172Z,1.37
2019-04-03T21:40:15.167Z,1.60
2019-04-03T21:42:45.251Z,1.13
2019-04-03T21:45:15.317Z,1.10
2019-04-03T21:47:45.245Z,1.40
2019-04-03T21:50:15.149Z,1.30
2019-04-03T21:52:45.922Z,1.10
2019-04-03T21:55:15.900Z,1.20
2019-04-03T21:57:45.686Z,1.30
2019-04-03T22:00:18.883Z,1.43
2019-04-03T22:02:49.849Z,1.40
2019-04-03T22:05:23.034Z,1.30
2019-04-03T22:07:53.292Z,1.30
2019-04-03T22:10:23.031Z,1.10
2019-04-03T22:12:52.727Z,1.10
2019-04-03T22:15:22.544Z,1.10
2019-04-03T22:17:53.024Z,1.20
2019-04-03T22:20:22.672Z,1.10
2019-04-03T22:22:52.706Z,1.10
2019-04-03T22:25:23.847Z,1.30
2019-04-03T22:27:53.660Z,1.00
2019-04-03T22:30:23.300Z,1.00
2019-04-03T22:32:54.007Z,1.10
2019-04-03T22:35:28.008Z,1.10
2019-04-03T22:37:57.142Z,0.97
2019-04-03T22:40:26.921Z,1.23
2019-04-03T22:42:56.961Z,1.20
2019-04-03T22:45:26.780Z,1.87
2019-04-03T22:47:56.844Z,2.20
2019-04-03T22:50:27.204Z,2.00
2019-04-03T22:52:57.213Z,2.17
2019-04-03T22:55:27.054Z,2.00
2019-04-03T22:57:56.827Z,2.33
2019-04-03T23:00:26.957Z,3.23
2019-04-03T23:02:56.858Z,3.47
2019-04-03T23:05:26.651Z,3.77
2019-04-03T23:07:56.381Z,3.73
2019-04-03T23:10:32.059Z,3.47
2019-04-03T23:13:04.496Z,3.57
2019-04-03T23:15:33.485Z,3.70
2019-04-03T23:18:03.559Z,3.80
2019-04-03T23:20:33.463Z,3.23
2019-04-03T23:23:04.146Z,3.20
2019-04-03T23:25:36.237Z,3.30
2019-04-03T23:28:07.829Z,3.10
2019-04-03T23:30:39.115Z,3.10
2019-04-03T23:33:16.899Z,3.03
2019-04-03T23:35:49.095Z,2.93
2019-04-03T23:38:18.929Z,2.80
2019-04-03T23:40:48.914Z,2.87
2019-04-03T23:43:20.229Z,3.03
2019-04-03T23:45:51.795Z,3.00
2019-04-03T23:48:21.543Z,2.80
2019-04-03T23:50:53.182Z,2.80
2019-04-03T23:53:23.008Z,2.80
2019-04-03T23:55:52.749Z,2.70
2019-04-03T23:58:22.574Z,2.70
